Time;durP1;ratioP1;P1;durP2;ratioP2;P2;SDS_P1;SDS_P2;PMS_P1;PMS_P2;Temp;Humidity;BMP_temperature;BMP_pressure;BME280_temperature;BME280_humidity;BME280_pressure;Samples;Min_cycle;Max_cycle;Signal;HPM_P1;HPM_P2
2022/11/29 00:00:30;;;;;;;;;;;5.30;99.90;;;;;;5038278;28;19932;-75
2022/11/29 00:02:56;;;;;;;;;;;5.20;99.90;;;;;;5027199;28;19929;-74
2022/11/29 00:05:28;;;;;;;;;;;5.20;99.90;;;;;;5005956;28;19979;-73
2022/11/29 00:08:00;;;;;;;;;;;5.30;99.90;;;;;;5037632;28;20380;-75
2022/11/29 00:10:26;;;;;;;;;;;5.30;99.90;;;;;;5023260;28;20326;-75
2022/11/29 00:12:58;;;;;;;;;;;5.30;99.90;;;;;;5033886;28;19929;-74
2022/11/29 00:15:29;;;;;;;;;;;5.30;99.90;;;;;;5031118;28;19925;-75
2022/11/29 00:18:01;;;;;;;;;;;5.30;99.90;;;;;;5019442;28;19933;-74
2022/11/29 00:20:33;;;;;;;;;;;5.40;99.90;;;;;;5035121;28;21673;-75
2022/11/29 00:23:05;;;;;;;;;;;5.40;99.90;;;;;;5036372;28;20006;-76
2022/11/29 00:25:37;;;;;;;;;;;5.40;99.90;;;;;;5037610;28;19975;-74
2022/11/29 00:28:08;;;;;;;;;;;5.40;99.90;;;;;;5029796;28;19958;-74
2022/11/29 00:30:40;;;;;;;;;;;5.40;99.90;;;;;;5028716;28;19991;-75
2022/11/29 00:33:11;;;;;;;;;;;5.40;99.90;;;;;;5025109;28;19924;-75
2022/11/29 00:35:43;;;;;;;;;;;5.40;99.90;;;;;;5011593;28;19925;-73
2022/11/29 00:38:15;;;;;;;;;;;5.40;99.90;;;;;;5033233;28;19925;-74
2022/11/29 00:40:50;;;;;;;;;;;5.40;99.90;;;;;;5038774;28;20039;-74
2022/11/29 00:43:17;;;;;;;;;;;5.40;99.90;;;;;;5037507;28;19929;-74
2022/11/29 00:45:48;;;;;;;;;;;5.40;99.90;;;;;;5034609;28;20276;-73
2022/11/29 00:48:20;;;;;;;;;;;5.50;99.90;;;;;;5027840;28;19937;-73
2022/11/29 00:50:51;;;;;;;;;;;5.50;99.90;;;;;;5012335;28;19933;-74
2022/11/29 00:53:23;;;;;;;;;;;5.50;99.90;;;;;;5034763;28;19928;-74
2022/11/29 00:55:55;;;;;;;;;;;5.50;99.90;;;;;;5018764;28;20560;-76
2022/11/29 00:58:27;;;;;;;;;;;5.50;99.90;;;;;;5033582;28;19929;-75
2022/11/29 01:00:58;;;;;;;;;;;5.50;99.90;;;;;;5033712;28;19949;-74
2022/11/29 01:03:30;;;;;;;;;;;5.50;99.90;;;;;;5035054;28;20639;-74
2022/11/29 01:06:03;;;;;;;;;;;5.50;99.90;;;;;;4998342;28;20303;-73
2022/11/29 01:08:35;;;;;;;;;;;5.50;99.90;;;;;;5015369;28;19926;-74
2022/11/29 01:11:12;;;;;;;;;;;5.50;99.90;;;;;;5030598;28;20287;-74
2022/11/29 01:13:44;;;;;;;;;;;5.50;99.90;;;;;;5039616;28;19929;-74
2022/11/29 01:16:16;;;;;;;;;;;5.50;99.90;;;;;;5017945;28;19975;-74
2022/11/29 01:18:42;;;;;;;;;;;5.50;99.90;;;;;;5021203;28;20339;-73
2022/11/29 01:21:15;;;;;;;;;;;5.40;99.90;;;;;;5014330;28;19998;-74
2022/11/29 01:23:47;;;;;;;;;;;5.50;99.90;;;;;;5036942;28;19925;-74
2022/11/29 01:26:20;;;;;;;;;;;5.50;99.90;;;;;;5012416;28;20451;-74
2022/11/29 01:28:52;;;;;;;;;;;5.50;99.90;;;;;;5039099;28;19940;-74
2022/11/29 01:31:29;;;;;;;;;;;5.50;99.90;;;;;;5022127;28;19951;-74
2022/11/29 01:34:01;;;;;;;;;;;5.50;99.90;;;;;;5038384;28;20307;-75
2022/11/29 01:36:33;;;;;;;;;;;5.50;99.90;;;;;;5029079;28;19925;-75
2022/11/29 01:39:05;;;;;;;;;;;5.40;99.90;;;;;;5023184;28;19925;-74
2022/11/29 01:41:37;;;;;;;;;;;5.40;99.90;;;;;;5006957;28;19925;-75
2022/11/29 01:44:11;;;;;;;;;;;5.50;99.90;;;;;;5038303;28;19925;-75
2022/11/29 01:46:44;;;;;;;;;;;5.50;99.90;;;;;;5030261;28;19931;-74
2022/11/29 01:49:17;;;;;;;;;;;5.50;99.90;;;;;;5037582;28;19930;-74
2022/11/29 01:51:55;;;;;;;;;;;5.50;99.90;;;;;;5035156;28;19932;-75
2022/11/29 01:54:21;;;;;;;;;;;5.50;99.90;;;;;;5028118;28;20465;-74
2022/11/29 01:56:53;;;;;;;;;;;5.50;99.90;;;;;;5023519;28;19928;-74
2022/11/29 01:59:26;;;;;;;;;;;5.50;99.90;;;;;;5040058;28;19925;-74
2022/11/29 02:02:02;;;;;;;;;;;5.50;99.90;;;;;;5041442;28;19929;-75
2022/11/29 02:04:34;;;;;;;;;;;5.50;99.90;;;;;;5002854;28;19926;-74
2022/11/29 02:07:01;;;;;;;;;;;5.50;99.90;;;;;;5012705;28;20269;-75
2022/11/29 02:09:28;;;;;;;;;;;5.50;99.90;;;;;;5001057;28;19986;-75
2022/11/29 02:12:09;;;;;;;;;;;5.50;99.90;;;;;;5030012;28;19948;-74
2022/11/29 02:14:40;;;;;;;;;;;5.50;99.90;;;;;;5032188;28;19991;-73
2022/11/29 02:17:28;;;;;;;;;;;5.50;99.90;;;;;;5032397;28;19959;-75
2022/11/29 02:20:19;;;;;;;;;;;5.50;99.90;;;;;;5004531;28;19925;-75
2022/11/29 02:22:50;;;;;;;;;;;5.50;99.90;;;;;;5041113;28;19929;-76
2022/11/29 02:25:20;;;;;;;;;;;5.50;99.90;;;;;;5018146;28;20391;-75
2022/11/29 02:28:05;;;;;;;;;;;5.60;99.90;;;;;;5035553;28;19932;-75
2022/11/29 02:30:43;;;;;;;;;;;5.60;99.90;;;;;;5040503;28;19990;-75
2022/11/29 02:33:37;;;;;;;;;;;5.60;99.90;;;;;;5037048;28;19978;-75
2022/11/29 02:36:09;;;;;;;;;;;5.60;99.90;;;;;;5003900;28;19980;-75
2022/11/29 02:38:53;;;;;;;;;;;5.60;99.90;;;;;;5015896;28;19982;-75
2022/11/29 02:41:34;;;;;;;;;;;5.70;99.90;;;;;;4998380;28;19933;-75
2022/11/29 02:44:05;;;;;;;;;;;5.70;99.90;;;;;;4978035;28;19926;-75
2022/11/29 02:46:32;;;;;;;;;;;5.70;99.90;;;;;;5007422;28;20347;-74
2022/11/29 02:49:12;;;;;;;;;;;5.70;99.90;;;;;;5035985;28;19933;-75
2022/11/29 02:51:48;;;;;;;;;;;5.70;99.90;;;;;;5008178;28;19925;-73
2022/11/29 02:54:29;;;;;;;;;;;5.70;99.90;;;;;;5037241;28;19932;-75
2022/11/29 02:57:06;;;;;;;;;;;5.70;99.90;;;;;;5037104;28;20028;-75
2022/11/29 02:59:49;;;;;;;;;;;5.70;99.90;;;;;;5033465;28;19978;-74
2022/11/29 03:02:30;;;;;;;;;;;5.70;99.90;;;;;;5019137;28;20437;-74
2022/11/29 03:05:16;;;;;;;;;;;5.70;99.90;;;;;;5007151;28;19929;-74
2022/11/29 03:08:17;;;;;;;;;;;5.60;99.90;;;;;;5040003;28;19936;-73
2022/11/29 03:11:00;;;;;;;;;;;5.60;99.90;;;;;;4968580;28;19951;-73
2022/11/29 03:13:41;;;;;;;;;;;5.70;99.90;;;;;;5037561;28;19929;-74
2022/11/29 03:16:27;;;;;;;;;;;5.70;99.90;;;;;;5042683;28;19931;-73
2022/11/29 03:19:03;;;;;;;;;;;5.70;99.90;;;;;;5023255;28;19929;-75
2022/11/29 03:21:40;;;;;;;;;;;5.70;99.90;;;;;;5044113;28;19979;-74
2022/11/29 03:24:18;;;;;;;;;;;5.70;99.90;;;;;;5023942;28;19986;-74
2022/11/29 03:27:10;;;;;;;;;;;5.70;99.90;;;;;;5019815;28;19929;-74
2022/11/29 03:29:46;;;;;;;;;;;5.80;99.90;;;;;;5040942;28;19937;-73
2022/11/29 03:32:31;;;;;;;;;;;5.70;99.90;;;;;;5029663;28;19932;-73
2022/11/29 03:35:17;;;;;;;;;;;5.70;99.90;;;;;;5003938;28;19933;-74
2022/11/29 03:37:57;;;;;;;;;;;5.80;99.90;;;;;;5041449;28;19929;-74
2022/11/29 03:40:37;;;;;;;;;;;5.80;99.90;;;;;;5032629;28;20455;-74
2022/11/29 03:43:12;;;;;;;;;;;5.80;99.90;;;;;;4993516;28;19974;-72
2022/11/29 03:45:47;;;;;;;;;;;5.80;99.90;;;;;;5031713;28;20704;-73
2022/11/29 03:48:17;;;;;;;;;;;5.80;99.90;;;;;;5004375;28;19925;-74
2022/11/29 03:50:56;;;;;;;;;;;5.80;99.90;;;;;;5032977;28;19987;-73
2022/11/29 03:53:27;;;;;;;;;;;5.80;99.90;;;;;;5024543;28;19929;-74
2022/11/29 03:56:00;;;;;;;;;;;5.80;99.90;;;;;;5039231;28;19933;-74
2022/11/29 03:58:42;;;;;;;;;;;5.70;99.90;;;;;;5036829;28;19947;-74
2022/11/29 04:01:16;;;;;;;;;;;5.80;99.90;;;;;;5043993;28;19932;-75
2022/11/29 04:04:18;;;;;;;;;;;5.80;99.90;;;;;;5015604;28;20253;-77
2022/11/29 04:07:02;;;;;;;;;;;5.80;99.90;;;;;;5023471;28;19933;-74
2022/11/29 04:09:54;;;;;;;;;;;5.80;99.90;;;;;;5007941;28;20370;-75
2022/11/29 04:12:28;;;;;;;;;;;5.80;99.90;;;;;;5040095;28;19928;-74
2022/11/29 04:15:00;;;;;;;;;;;5.80;99.90;;;;;;5022193;28;19976;-75
2022/11/29 04:17:50;;;;;;;;;;;5.80;99.90;;;;;;5038448;28;20434;-75
2022/11/29 04:20:46;;;;;;;;;;;5.80;99.90;;;;;;5018319;28;19925;-75
2022/11/29 04:23:21;;;;;;;;;;;5.80;99.90;;;;;;4971966;28;19936;-74
2022/11/29 04:26:10;;;;;;;;;;;5.80;99.90;;;;;;5021393;28;19958;-74
2022/11/29 04:29:00;;;;;;;;;;;5.70;99.90;;;;;;5023305;28;20448;-75
2022/11/29 04:31:51;;;;;;;;;;;5.80;99.90;;;;;;5043325;28;20473;-74
2022/11/29 04:34:41;;;;;;;;;;;5.80;99.90;;;;;;5014962;28;20725;-74
2022/11/29 04:37:23;;;;;;;;;;;5.80;99.90;;;;;;4996973;28;19926;-75
2022/11/29 04:40:06;;;;;;;;;;;5.80;99.90;;;;;;5040144;28;20523;-74
2022/11/29 04:42:48;;;;;;;;;;;5.80;99.90;;;;;;5009163;28;19928;-74
2022/11/29 04:45:34;;;;;;;;;;;5.80;99.90;;;;;;5034610;28;19933;-72
2022/11/29 04:48:16;;;;;;;;;;;5.80;99.90;;;;;;5006042;28;20001;-74
2022/11/29 04:50:57;;;;;;;;;;;5.80;99.90;;;;;;5012579;28;20437;-73
2022/11/29 04:53:35;;;;;;;;;;;5.80;99.90;;;;;;5028021;28;19929;-75
2022/11/29 04:56:26;;;;;;;;;;;5.80;99.90;;;;;;5003609;28;19928;-75
2022/11/29 04:58:57;;;;;;;;;;;5.80;99.90;;;;;;5005216;28;19929;-74
2022/11/29 05:01:34;;;;;;;;;;;5.80;99.90;;;;;;5021952;28;19929;-73
2022/11/29 05:04:01;;;;;;;;;;;5.80;99.90;;;;;;5019852;28;20367;-74
2022/11/29 05:06:37;;;;;;;;;;;5.80;99.90;;;;;;5016785;28;19925;-73
2022/11/29 05:09:16;;;;;;;;;;;5.80;99.90;;;;;;5007842;28;19929;-74
2022/11/29 05:12:06;;;;;;;;;;;5.80;99.90;;;;;;5005212;28;19933;-73
2022/11/29 05:14:51;;;;;;;;;;;5.80;99.90;;;;;;5034673;28;19940;-75
2022/11/29 05:17:38;;;;;;;;;;;5.80;99.90;;;;;;5036304;28;19933;-75
2022/11/29 05:20:20;;;;;;;;;;;5.80;99.90;;;;;;5016598;28;19929;-76
2022/11/29 05:23:10;;;;;;;;;;;5.80;99.90;;;;;;5005120;28;20526;-75
2022/11/29 05:25:58;;;;;;;;;;;5.80;99.90;;;;;;5014555;28;19995;-75
2022/11/29 05:28:41;;;;;;;;;;;5.80;99.90;;;;;;5041695;28;19928;-74
2022/11/29 05:31:27;;;;;;;;;;;5.80;99.90;;;;;;5004865;28;22354;-73
2022/11/29 05:33:59;;;;;;;;;;;5.80;99.90;;;;;;5028034;28;19925;-75
2022/11/29 05:36:41;;;;;;;;;;;5.80;99.90;;;;;;5034349;28;19951;-75
2022/11/29 05:39:39;;;;;;;;;;;5.80;99.90;;;;;;5029252;28;19925;-75
2022/11/29 05:42:24;;;;;;;;;;;5.80;99.90;;;;;;4992699;28;19935;-74
2022/11/29 05:44:53;;;;;;;;;;;5.80;99.90;;;;;;5016676;28;19925;-77
2022/11/29 05:47:34;;;;;;;;;;;5.80;99.90;;;;;;5032087;28;19930;-75
2022/11/29 05:50:07;;;;;;;;;;;5.80;99.90;;;;;;5017022;28;19924;-76
2022/11/29 05:52:52;;;;;;;;;;;5.80;99.90;;;;;;5027579;28;20334;-74
2022/11/29 05:55:41;;;;;;;;;;;5.80;99.90;;;;;;5026670;28;19933;-73
2022/11/29 05:58:25;;;;;;;;;;;5.80;99.90;;;;;;5006531;28;19933;-73
2022/11/29 06:01:08;;;;;;;;;;;5.80;99.90;;;;;;5022345;28;19936;-75
2022/11/29 06:03:52;;;;;;;;;;;5.80;99.90;;;;;;5007699;28;20399;-72
2022/11/29 06:06:43;;;;;;;;;;;5.80;99.90;;;;;;5031365;28;19926;-72
2022/11/29 06:09:25;;;;;;;;;;;5.80;99.90;;;;;;5013776;28;19933;-74
2022/11/29 06:12:02;;;;;;;;;;;5.80;99.90;;;;;;4989037;28;19983;-71
2022/11/29 06:14:44;;;;;;;;;;;5.80;99.90;;;;;;4995208;28;19934;-74
2022/11/29 06:17:34;;;;;;;;;;;5.80;99.90;;;;;;4982406;28;19928;-75
2022/11/29 06:20:25;;;;;;;;;;;5.80;99.90;;;;;;5030146;28;19933;-75
2022/11/29 06:23:12;;;;;;;;;;;5.80;99.90;;;;;;5035921;28;19932;-74
2022/11/29 06:25:55;;;;;;;;;;;5.80;99.90;;;;;;5005060;28;19979;-75
2022/11/29 06:28:40;;;;;;;;;;;5.80;99.90;;;;;;5032013;28;19933;-73
2022/11/29 06:31:19;;;;;;;;;;;5.80;99.90;;;;;;5028593;28;20414;-75
2022/11/29 06:34:04;;;;;;;;;;;5.80;99.90;;;;;;5033270;28;19928;-74
2022/11/29 06:36:49;;;;;;;;;;;5.80;99.90;;;;;;5036702;28;20603;-74
2022/11/29 06:39:20;;;;;;;;;;;5.80;99.90;;;;;;5009410;28;19925;-74
2022/11/29 06:41:52;;;;;;;;;;;5.80;99.90;;;;;;5023532;28;19975;-75
2022/11/29 06:44:19;;;;;;;;;;;5.80;99.90;;;;;;5020182;28;19975;-74
2022/11/29 06:46:54;;;;;;;;;;;5.80;99.90;;;;;;5034033;28;19987;-74
2022/11/29 06:49:27;;;;;;;;;;;5.80;99.90;;;;;;5008557;28;19979;-73
2022/11/29 06:52:18;;;;;;;;;;;5.90;99.90;;;;;;5028104;28;19925;-74
2022/11/29 06:54:51;;;;;;;;;;;5.90;99.90;;;;;;5023487;28;19929;-72
2022/11/29 06:57:27;;;;;;;;;;;5.90;99.90;;;;;;5006171;28;19925;-74
2022/11/29 07:00:02;;;;;;;;;;;5.90;99.90;;;;;;5022427;28;19925;-75
2022/11/29 07:02:52;;;;;;;;;;;5.90;99.90;;;;;;5022338;28;19933;-73
2022/11/29 07:05:26;;;;;;;;;;;5.90;99.90;;;;;;5014243;28;19926;-72
2022/11/29 07:08:02;;;;;;;;;;;5.90;99.90;;;;;;5027077;28;19929;-74
2022/11/29 07:10:35;;;;;;;;;;;5.80;99.90;;;;;;5021098;28;19936;-75
2022/11/29 07:13:09;;;;;;;;;;;5.80;99.90;;;;;;5024641;28;19936;-75
2022/11/29 07:15:45;;;;;;;;;;;5.80;99.90;;;;;;5028181;28;19929;-74
2022/11/29 07:18:18;;;;;;;;;;;5.80;99.90;;;;;;5016772;28;19933;-72
2022/11/29 07:21:09;;;;;;;;;;;5.80;99.90;;;;;;5039234;28;19935;-75
2022/11/29 07:23:51;;;;;;;;;;;5.90;99.90;;;;;;5031699;28;19926;-74
2022/11/29 07:26:22;;;;;;;;;;;5.90;99.90;;;;;;5032525;28;19926;-73
2022/11/29 07:28:52;;;;;;;;;;;5.90;99.90;;;;;;5021243;28;19951;-73
2022/11/29 07:31:18;;;;;;;;;;;5.90;99.90;;;;;;5016173;28;19952;-74
2022/11/29 07:34:05;;;;;;;;;;;5.90;99.90;;;;;;4994971;28;20434;-73
2022/11/29 07:36:41;;;;;;;;;;;5.90;99.90;;;;;;5034578;28;19929;-75
2022/11/29 07:39:20;;;;;;;;;;;5.90;99.90;;;;;;5039398;28;19925;-74
2022/11/29 07:42:06;;;;;;;;;;;6.00;99.90;;;;;;5017063;28;19933;-74
2022/11/29 07:44:32;;;;;;;;;;;6.00;99.90;;;;;;5027737;28;19933;-75
2022/11/29 07:47:04;;;;;;;;;;;6.00;99.90;;;;;;5003801;28;19924;-75
2022/11/29 07:49:35;;;;;;;;;;;6.00;99.90;;;;;;5036834;28;19929;-75
2022/11/29 07:52:02;;;;;;;;;;;6.00;99.90;;;;;;5022292;28;19952;-74
2022/11/29 07:54:34;;;;;;;;;;;6.00;99.90;;;;;;5034285;28;20295;-74
2022/11/29 07:57:00;;;;;;;;;;;6.00;99.90;;;;;;5002970;28;19960;-75
2022/11/29 07:59:27;;;;;;;;;;;6.00;99.90;;;;;;5037713;28;19979;-73
2022/11/29 08:01:58;;;;;;;;;;;6.00;99.90;;;;;;5035906;28;19983;-75
2022/11/29 08:04:25;;;;;;;;;;;6.00;99.90;;;;;;5015807;28;19936;-74
2022/11/29 08:06:57;;;;;;;;;;;6.00;99.90;;;;;;5013354;28;19941;-72
2022/11/29 08:09:24;;;;;;;;;;;6.00;99.90;;;;;;5019941;28;19991;-73
2022/11/29 08:11:51;;;;;;;;;;;6.00;99.90;;;;;;5038391;28;20045;-75
2022/11/29 08:14:23;;;;;;;;;;;6.00;99.90;;;;;;5031591;28;19925;-76
2022/11/29 08:16:54;;;;;;;;;;;6.00;99.90;;;;;;5016291;28;19933;-75
2022/11/29 08:19:26;;;;;;;;;;;6.00;99.90;;;;;;5019593;28;19936;-75
2022/11/29 08:21:53;;;;;;;;;;;6.00;99.90;;;;;;5025870;28;19925;-74
2022/11/29 08:24:19;;;;;;;;;;;6.00;99.90;;;;;;5019114;28;19936;-74
2022/11/29 08:26:46;;;;;;;;;;;6.10;99.90;;;;;;5018040;28;19933;-73
2022/11/29 08:29:18;;;;;;;;;;;6.00;99.90;;;;;;4993491;28;19924;-73
2022/11/29 08:31:52;;;;;;;;;;;6.10;99.90;;;;;;5039943;28;19929;-75
2022/11/29 08:34:23;;;;;;;;;;;6.10;99.90;;;;;;5013243;28;19929;-75
2022/11/29 08:36:55;;;;;;;;;;;6.10;99.90;;;;;;5016508;28;19928;-73
2022/11/29 08:39:27;;;;;;;;;;;6.10;99.90;;;;;;5026444;28;19979;-75
2022/11/29 08:41:53;;;;;;;;;;;6.10;99.90;;;;;;5038040;28;20268;-75
2022/11/29 08:44:20;;;;;;;;;;;6.10;99.90;;;;;;5009404;28;19925;-75
2022/11/29 08:50:03;;;;;;;;;;;6.20;99.90;;;;;;5017585;28;19925;-74
2022/11/29 08:55:21;;;;;;;;;;;6.20;99.90;;;;;;5023214;28;19926;-71
2022/11/29 08:57:53;;;;;;;;;;;6.20;99.90;;;;;;5013022;28;20664;-73
2022/11/29 09:00:25;;;;;;;;;;;6.20;99.90;;;;;;5023335;28;19948;-72
2022/11/29 09:02:51;;;;;;;;;;;6.20;99.90;;;;;;5028931;28;19933;-73
2022/11/29 09:05:18;;;;;;;;;;;6.20;99.90;;;;;;5018279;28;19932;-72
2022/11/29 09:07:50;;;;;;;;;;;6.30;99.90;;;;;;5017011;28;19928;-72
2022/11/29 09:10:21;;;;;;;;;;;6.20;99.90;;;;;;5041296;28;19928;-73
2022/11/29 09:12:50;;;;;;;;;;;6.30;99.90;;;;;;5022470;28;19971;-71
2022/11/29 09:15:16;;;;;;;;;;;6.30;99.90;;;;;;5000360;28;19980;-72
2022/11/29 09:17:43;;;;;;;;;;;6.30;99.90;;;;;;5044499;28;20319;-73
2022/11/29 09:20:14;;;;;;;;;;;6.30;99.90;;;;;;5033671;28;20410;-73
2022/11/29 09:22:46;;;;;;;;;;;6.30;99.90;;;;;;5014928;28;20326;-73
2022/11/29 09:25:18;;;;;;;;;;;6.30;99.90;;;;;;4998822;28;19926;-75
2022/11/29 09:27:50;;;;;;;;;;;6.30;99.90;;;;;;5019123;28;20365;-73
2022/11/29 09:30:22;;;;;;;;;;;6.30;99.90;;;;;;5019195;28;19936;-71
2022/11/29 09:32:53;;;;;;;;;;;6.30;99.90;;;;;;5017005;28;19986;-73
2022/11/29 09:35:25;;;;;;;;;;;6.30;99.90;;;;;;5011723;28;20439;-74
2022/11/29 09:37:51;;;;;;;;;;;6.30;99.90;;;;;;5019623;28;20276;-72
2022/11/29 09:40:19;;;;;;;;;;;6.30;99.90;;;;;;5017069;28;19975;-73
2022/11/29 09:43:12;;;;;;;;;;;6.30;99.90;;;;;;5016739;28;20390;-75
2022/11/29 09:45:45;;;;;;;;;;;6.40;99.90;;;;;;5004300;28;19925;-74
2022/11/29 09:48:29;;;;;;;;;;;6.40;99.90;;;;;;5039969;28;20437;-73
2022/11/29 09:51:06;;;;;;;;;;;6.40;99.90;;;;;;5036475;28;19929;-74
2022/11/29 09:53:46;;;;;;;;;;;6.40;99.90;;;;;;5022280;28;20047;-74
2022/11/29 09:56:21;;;;;;;;;;;6.50;99.90;;;;;;5033256;28;19959;-75
2022/11/29 09:58:57;;;;;;;;;;;6.50;99.90;;;;;;5031565;28;19972;-73
2022/11/29 10:01:41;;;;;;;;;;;6.50;99.90;;;;;;5017275;28;19929;-75
2022/11/29 10:04:16;;;;;;;;;;;6.50;99.90;;;;;;5026931;28;19971;-74
2022/11/29 10:06:47;;;;;;;;;;;6.50;99.90;;;;;;5002230;28;19936;-74
2022/11/29 10:09:19;;;;;;;;;;;6.50;99.90;;;;;;5022481;28;19983;-74
2022/11/29 10:11:57;;;;;;;;;;;6.50;99.90;;;;;;5033520;28;19933;-75
2022/11/29 10:14:41;;;;;;;;;;;6.50;99.90;;;;;;5013131;28;19925;-73
2022/11/29 10:17:18;;;;;;;;;;;6.50;99.90;;;;;;5016764;28;19924;-75
2022/11/29 10:19:53;;;;;;;;;;;6.50;99.90;;;;;;5011765;28;19956;-75
2022/11/29 10:22:29;;;;;;;;;;;6.60;99.90;;;;;;5003627;28;19974;-72
2022/11/29 10:25:01;;;;;;;;;;;6.60;99.90;;;;;;5014980;28;19929;-75
2022/11/29 10:27:34;;;;;;;;;;;6.60;99.90;;;;;;5000864;28;19925;-75
2022/11/29 10:30:12;;;;;;;;;;;6.60;99.90;;;;;;5036216;28;19925;-75
2022/11/29 10:32:38;;;;;;;;;;;6.60;99.90;;;;;;5017739;28;19925;-74
2022/11/29 10:35:12;;;;;;;;;;;6.60;99.90;;;;;;5036920;28;19929;-75
2022/11/29 10:37:44;;;;;;;;;;;6.60;99.90;;;;;;5033173;28;19932;-75
2022/11/29 10:40:21;;;;;;;;;;;6.70;99.90;;;;;;5020919;28;19975;-75
2022/11/29 10:42:53;;;;;;;;;;;6.70;99.90;;;;;;5031116;28;19933;-73
2022/11/29 10:45:27;;;;;;;;;;;6.70;99.90;;;;;;5003772;28;19983;-73
2022/11/29 10:48:03;;;;;;;;;;;6.70;99.90;;;;;;5026976;28;20516;-73
2022/11/29 10:50:36;;;;;;;;;;;6.80;99.90;;;;;;5005212;28;19929;-75
2022/11/29 10:53:09;;;;;;;;;;;6.80;99.90;;;;;;5012034;28;19925;-74
2022/11/29 10:55:43;;;;;;;;;;;6.80;99.90;;;;;;5027856;28;19925;-74
2022/11/29 10:58:18;;;;;;;;;;;6.80;99.90;;;;;;5012443;28;19929;-75
2022/11/29 11:00:51;;;;;;;;;;;6.80;99.90;;;;;;5026604;28;19956;-75
2022/11/29 11:03:26;;;;;;;;;;;6.80;99.90;;;;;;5023342;28;20338;-73
2022/11/29 11:06:04;;;;;;;;;;;6.80;99.90;;;;;;5031996;28;19925;-72
2022/11/29 11:08:36;;;;;;;;;;;6.80;99.90;;;;;;5020114;28;20370;-75
2022/11/29 11:11:08;;;;;;;;;;;6.80;99.90;;;;;;5028456;28;19925;-73
2022/11/29 11:13:40;;;;;;;;;;;6.80;99.90;;;;;;5002096;28;19924;-73
2022/11/29 11:16:16;;;;;;;;;;;6.80;99.90;;;;;;5001670;28;20387;-75
2022/11/29 11:18:48;;;;;;;;;;;6.80;99.90;;;;;;5006610;28;19932;-75
2022/11/29 11:21:16;;;;;;;;;;;6.90;99.90;;;;;;5046422;28;19933;-73
2022/11/29 11:23:54;;;;;;;;;;;6.80;99.90;;;;;;5023359;28;20486;-75
2022/11/29 11:26:21;;;;;;;;;;;6.90;99.90;;;;;;5022764;28;19928;-75
2022/11/29 11:28:50;;;;;;;;;;;6.90;99.90;;;;;;5014667;28;19971;-75
2022/11/29 11:31:25;;;;;;;;;;;6.90;99.90;;;;;;5023431;28;20530;-73
2022/11/29 11:33:52;;;;;;;;;;;7.00;99.90;;;;;;4990697;28;20398;-73
2022/11/29 11:36:19;;;;;;;;;;;7.00;99.90;;;;;;5008824;28;19999;-72
2022/11/29 11:38:50;;;;;;;;;;;7.00;99.90;;;;;;5013981;28;19957;-75
2022/11/29 11:42:35;;;;;;;;;;;7.10;99.90;;;;;;5005444;28;19987;-75
2022/11/29 11:44:22;;;;;;;;;;;7.10;99.90;;;;;;5028689;28;19932;-73
2022/11/29 11:46:54;;;;;;;;;;;7.10;99.90;;;;;;5018786;28;20473;-72
2022/11/29 11:49:30;;;;;;;;;;;7.20;99.90;;;;;;5014642;28;19929;-79
2022/11/29 11:52:03;;;;;;;;;;;7.20;99.90;;;;;;5036253;28;19925;-73
2022/11/29 11:54:30;;;;;;;;;;;7.20;99.90;;;;;;5036694;28;19929;-75
2022/11/29 11:56:58;;;;;;;;;;;7.20;99.90;;;;;;5038111;28;19987;-73
2022/11/29 11:59:29;;;;;;;;;;;7.20;99.90;;;;;;5012280;28;19926;-75
2022/11/29 12:02:01;;;;;;;;;;;7.20;99.90;;;;;;5039350;28;19975;-72
2022/11/29 12:04:34;;;;;;;;;;;7.20;99.90;;;;;;5017166;28;19925;-74
2022/11/29 12:07:18;;;;;;;;;;;7.20;99.90;;;;;;5037328;28;19924;-73
2022/11/29 12:09:53;;;;;;;;;;;7.20;99.90;;;;;;5011827;28;19979;-75
2022/11/29 12:12:27;;;;;;;;;;;7.20;99.90;;;;;;5003338;28;19935;-72
2022/11/29 12:15:09;;;;;;;;;;;7.20;99.90;;;;;;5017922;28;19925;-75
2022/11/29 12:17:38;;;;;;;;;;;7.20;99.90;;;;;;5013804;28;19936;-77
2022/11/29 12:20:19;;;;;;;;;;;7.20;99.90;;;;;;5035007;28;19933;-74
2022/11/29 12:22:52;;;;;;;;;;;7.20;99.90;;;;;;5036252;28;20031;-73
2022/11/29 12:25:29;;;;;;;;;;;7.20;99.90;;;;;;5015052;28;20390;-74
2022/11/29 12:28:02;;;;;;;;;;;7.20;99.90;;;;;;5027883;28;19931;-75
2022/11/29 12:30:34;;;;;;;;;;;7.30;99.90;;;;;;4998955;28;19937;-74
2022/11/29 12:33:15;;;;;;;;;;;7.30;99.90;;;;;;5017871;28;20026;-75
2022/11/29 12:36:05;;;;;;;;;;;7.30;99.90;;;;;;4993288;28;19930;-73
2022/11/29 12:38:43;;;;;;;;;;;7.30;99.90;;;;;;5001954;28;19932;-71
2022/11/29 12:41:42;;;;;;;;;;;7.30;99.90;;;;;;5030859;28;19929;-73
2022/11/29 12:44:28;;;;;;;;;;;7.30;99.90;;;;;;5032981;28;20376;-72
2022/11/29 12:47:20;;;;;;;;;;;7.30;99.90;;;;;;5016427;28;19925;-74
2022/11/29 12:49:51;;;;;;;;;;;7.20;99.90;;;;;;5023536;28;19954;-74
2022/11/29 12:52:23;;;;;;;;;;;7.20;99.90;;;;;;5013325;28;19974;-73
2022/11/29 12:55:08;;;;;;;;;;;7.20;99.90;;;;;;5030144;28;19925;-72
2022/11/29 12:58:09;;;;;;;;;;;7.20;99.90;;;;;;4998617;28;20407;-74
2022/11/29 13:00:41;;;;;;;;;;;7.30;99.90;;;;;;4995137;28;20641;-72
2022/11/29 13:03:20;;;;;;;;;;;7.30;99.90;;;;;;5031943;28;19925;-72
2022/11/29 13:05:50;;;;;;;;;;;7.30;99.90;;;;;;5032370;28;19936;-72
2022/11/29 13:08:20;;;;;;;;;;;7.30;99.90;;;;;;5012303;28;19975;-73
2022/11/29 13:10:58;;;;;;;;;;;7.20;99.90;;;;;;5022161;28;19934;-75
2022/11/29 13:13:41;;;;;;;;;;;7.30;99.90;;;;;;5029065;28;19924;-74
2022/11/29 13:16:25;;;;;;;;;;;7.30;99.90;;;;;;5032434;28;20572;-74
2022/11/29 13:19:07;;;;;;;;;;;7.30;99.90;;;;;;5001221;28;19933;-74
2022/11/29 13:21:57;;;;;;;;;;;7.30;99.90;;;;;;5021040;28;19971;-74
2022/11/29 13:24:32;;;;;;;;;;;7.20;99.90;;;;;;5035325;28;19924;-75
2022/11/29 13:27:04;;;;;;;;;;;7.20;99.90;;;;;;5031660;28;19991;-74
2022/11/29 13:29:30;;;;;;;;;;;7.20;99.90;;;;;;5013428;28;19925;-74
2022/11/29 13:32:03;;;;;;;;;;;7.20;99.90;;;;;;5017500;28;19925;-74
2022/11/29 13:34:39;;;;;;;;;;;7.20;99.90;;;;;;5009112;28;19929;-75
2022/11/29 13:37:19;;;;;;;;;;;7.20;99.90;;;;;;5034009;28;19978;-75
2022/11/29 13:39:57;;;;;;;;;;;7.20;99.90;;;;;;5002071;28;19929;-74
2022/11/29 13:42:49;;;;;;;;;;;7.30;99.90;;;;;;5013615;28;19977;-75
2022/11/29 13:45:31;;;;;;;;;;;7.30;99.90;;;;;;4994803;28;19934;-75
2022/11/29 13:48:19;;;;;;;;;;;7.20;99.90;;;;;;5034930;28;19933;-73
2022/11/29 13:50:51;;;;;;;;;;;7.20;99.90;;;;;;5041713;28;19929;-74
2022/11/29 13:53:24;;;;;;;;;;;7.20;99.90;;;;;;5036869;28;20399;-74
2022/11/29 13:56:01;;;;;;;;;;;7.20;99.90;;;;;;5003522;28;19979;-71
2022/11/29 13:58:34;;;;;;;;;;;7.10;99.90;;;;;;5013541;28;19929;-74
2022/11/29 14:01:08;;;;;;;;;;;7.10;99.90;;;;;;5018881;28;19944;-73
2022/11/29 14:03:40;;;;;;;;;;;7.10;99.90;;;;;;5023784;28;20331;-73
2022/11/29 14:06:20;;;;;;;;;;;7.10;99.90;;;;;;5023173;28;19979;-75
2022/11/29 14:08:52;;;;;;;;;;;7.10;99.90;;;;;;5032445;28;20350;-75
2022/11/29 14:11:21;;;;;;;;;;;7.10;99.90;;;;;;5012926;28;19930;-72
2022/11/29 14:14:04;;;;;;;;;;;7.10;99.90;;;;;;5020870;28;19936;-74
2022/11/29 14:16:59;;;;;;;;;;;7.10;99.90;;;;;;5029347;28;19925;-75
2022/11/29 14:19:35;;;;;;;;;;;7.10;99.90;;;;;;4964992;28;19933;-74
2022/11/29 14:22:17;;;;;;;;;;;7.00;99.90;;;;;;5019940;28;19947;-75
2022/11/29 14:24:57;;;;;;;;;;;7.00;99.90;;;;;;5004699;28;19933;-74
2022/11/29 14:27:29;;;;;;;;;;;7.00;99.90;;;;;;5035858;28;20307;-74
2022/11/29 14:30:00;;;;;;;;;;;7.00;99.90;;;;;;5017953;28;19956;-75
2022/11/29 14:32:39;;;;;;;;;;;7.00;99.90;;;;;;5020634;28;19925;-73
2022/11/29 14:35:09;;;;;;;;;;;7.00;99.90;;;;;;5031978;28;19939;-71
2022/11/29 14:37:59;;;;;;;;;;;7.10;99.90;;;;;;5038215;28;19932;-72
2022/11/29 14:40:46;;;;;;;;;;;7.10;99.90;;;;;;5009554;28;19930;-72
2022/11/29 14:43:23;;;;;;;;;;;7.10;99.90;;;;;;5005384;28;20455;-73
2022/11/29 14:46:07;;;;;;;;;;;7.00;99.90;;;;;;5013129;28;19929;-75
2022/11/29 14:48:55;;;;;;;;;;;7.00;99.90;;;;;;4999452;28;19925;-73
2022/11/29 14:51:31;;;;;;;;;;;7.00;99.90;;;;;;4996423;28;19956;-74
2022/11/29 14:54:07;;;;;;;;;;;6.90;99.90;;;;;;5028663;28;19929;-75
2022/11/29 14:56:34;;;;;;;;;;;6.90;99.90;;;;;;4996861;28;19925;-74
2022/11/29 14:59:19;;;;;;;;;;;6.90;99.90;;;;;;5021152;28;19968;-72
2022/11/29 15:01:51;;;;;;;;;;;6.90;99.90;;;;;;5000638;28;19940;-75
2022/11/29 15:04:24;;;;;;;;;;;6.90;99.90;;;;;;5046423;28;20415;-73
2022/11/29 15:06:57;;;;;;;;;;;6.90;99.90;;;;;;5016693;28;19929;-73
2022/11/29 15:09:31;;;;;;;;;;;6.90;99.90;;;;;;5016684;28;19991;-73
2022/11/29 15:12:07;;;;;;;;;;;6.80;99.90;;;;;;5030450;28;19925;-72
2022/11/29 15:14:45;;;;;;;;;;;6.90;99.90;;;;;;5020652;28;20669;-72
2022/11/29 15:17:21;;;;;;;;;;;6.90;99.90;;;;;;5020833;28;19925;-73
2022/11/29 15:20:05;;;;;;;;;;;6.90;99.90;;;;;;5009298;28;20268;-74
2022/11/29 15:22:36;;;;;;;;;;;7.10;99.90;;;;;;5000266;28;19929;-74
2022/11/29 15:25:12;;;;;;;;;;;7.30;99.90;;;;;;5035968;28;19960;-73
2022/11/29 15:27:48;;;;;;;;;;;7.40;99.90;;;;;;5043027;28;19936;-73
2022/11/29 15:30:23;;;;;;;;;;;7.40;99.90;;;;;;5038757;28;19925;-73